Time;durP1;ratioP1;P1;durP2;ratioP2;P2;SDS_P1;SDS_P2;PMS_P1;PMS_P2;Temp;Humidity;BMP_temperature;BMP_pressure;BME280_temperature;BME280_humidity;BME280_pressure;Samples;Min_cycle;Max_cycle;Signal;HPM_P1;HPM_P2
2023/05/09 00:01:36;;;;;;;0.00;0.00;;;9.30;99.90;;;;;;5016463;28;20079;-76
2023/05/09 00:04:10;;;;;;;0.10;0.00;;;9.30;99.90;;;;;;5017915;28;20030;-76
2023/05/09 00:06:36;;;;;;;0.00;0.00;;;9.30;99.90;;;;;;5029173;28;20116;-76
2023/05/09 00:09:03;;;;;;;0.00;0.00;;;9.30;99.90;;;;;;5022207;28;20530;-76
2023/05/09 00:11:30;;;;;;;0.00;0.00;;;9.30;99.90;;;;;;5017158;28;20057;-77
2023/05/09 00:14:02;;;;;;;0.00;0.00;;;9.20;99.90;;;;;;5019675;28;20445;-76
2023/05/09 00:16:31;;;;;;;0.00;0.00;;;9.20;99.90;;;;;;5019436;28;20036;-77
2023/05/09 00:18:59;;;;;;;0.15;0.15;;;9.30;99.90;;;;;;5035483;28;20052;-77
2023/05/09 00:21:25;;;;;;;0.00;0.00;;;9.20;99.90;;;;;;5028483;28;20033;-76
2023/05/09 00:23:53;;;;;;;0.03;0.03;;;9.20;99.90;;;;;;5033722;28;20116;-76
2023/05/09 00:26:18;;;;;;;0.08;0.08;;;9.10;99.90;;;;;;5022848;28;20025;-76
2023/05/09 00:28:45;;;;;;;0.00;0.00;;;9.10;99.90;;;;;;5023854;28;20089;-77
2023/05/09 00:31:20;;;;;;;0.00;0.00;;;9.10;99.90;;;;;;5023867;28;20746;-76
2023/05/09 00:33:56;;;;;;;0.00;0.00;;;9.10;99.90;;;;;;5019254;28;20304;-76
2023/05/09 00:36:22;;;;;;;0.00;0.00;;;9.10;99.90;;;;;;5024101;28;20029;-76
2023/05/09 00:38:50;;;;;;;0.00;0.00;;;9.10;99.90;;;;;;5020066;28;20291;-77
2023/05/09 00:41:18;;;;;;;0.00;0.00;;;9.00;99.90;;;;;;5025991;28;20112;-76
2023/05/09 00:43:44;;;;;;;0.00;0.00;;;9.10;99.90;;;;;;5023372;28;20040;-76
2023/05/09 00:46:13;;;;;;;0.00;0.00;;;9.10;99.90;;;;;;5024261;28;20018;-76
2023/05/09 00:48:42;;;;;;;0.00;0.00;;;9.10;99.90;;;;;;5024748;28;20010;-76
2023/05/09 00:51:13;;;;;;;0.00;0.00;;;9.10;99.90;;;;;;5031760;28;20093;-76
2023/05/09 00:53:40;;;;;;;0.00;0.00;;;9.10;99.90;;;;;;5024050;28;20018;-76
2023/05/09 00:56:06;;;;;;;;;;;9.10;99.90;;;;;;5024370;28;20099;-77
2023/05/09 00:58:40;;;;;;;0.00;0.00;;;9.00;99.90;;;;;;5029372;28;19955;-76
2023/05/09 01:01:07;;;;;;;0.00;0.00;;;9.00;99.90;;;;;;5021013;28;20088;-77
2023/05/09 01:03:34;;;;;;;0.00;0.00;;;9.10;99.90;;;;;;5020405;28;20041;-76
2023/05/09 01:06:38;;;;;;;0.00;0.00;;;9.10;99.90;;;;;;5019098;28;20041;-78
2023/05/09 01:09:18;;;;;;;0.00;0.00;;;9.10;99.90;;;;;;5026321;28;20071;-76
2023/05/09 01:12:25;;;;;;;0.00;0.00;;;9.10;99.90;;;;;;5027847;28;20552;-77
2023/05/09 01:15:28;;;;;;;0.00;0.00;;;9.10;99.90;;;;;;5025842;28;20447;-77
2023/05/09 01:18:10;;;;;;;0.00;0.00;;;9.10;99.90;;;;;;5022348;28;20072;-77
2023/05/09 01:20:44;;;;;;;0.00;0.00;;;9.00;99.90;;;;;;5030766;28;20028;-76
2023/05/09 01:23:42;;;;;;;0.08;0.08;;;9.00;99.90;;;;;;5022609;28;20064;-76
2023/05/09 01:26:46;;;;;;;0.00;0.00;;;9.00;99.90;;;;;;5022879;28;20016;-76
2023/05/09 01:29:45;;;;;;;0.00;0.00;;;9.00;99.90;;;;;;5020063;28;20018;-76
2023/05/09 01:32:29;;;;;;;0.00;0.00;;;9.00;99.90;;;;;;5020345;28;20781;-76
2023/05/09 01:34:58;;;;;;;0.00;0.00;;;9.00;99.90;;;;;;5027182;28;20036;-76
2023/05/09 01:37:32;;;;;;;0.00;0.00;;;8.90;99.90;;;;;;5023817;28;20065;-76
2023/05/09 01:40:14;;;;;;;0.00;0.00;;;8.90;99.90;;;;;;5022510;28;20061;-76
2023/05/09 01:42:57;;;;;;;0.35;0.20;;;8.90;99.90;;;;;;5022735;28;20144;-76
2023/05/09 01:45:25;;;;;;;0.00;0.00;;;8.90;99.90;;;;;;5023809;28;20026;-76
2023/05/09 01:47:56;;;;;;;0.00;0.00;;;8.90;99.90;;;;;;5023207;28;20104;-76
2023/05/09 01:50:29;;;;;;;0.00;0.00;;;8.90;99.90;;;;;;5046230;28;20026;-77
2023/05/09 01:52:58;;;;;;;0.00;0.00;;;9.00;99.90;;;;;;5021040;28;20033;-77
2023/05/09 01:55:33;;;;;;;0.10;0.10;;;9.00;99.90;;;;;;5020751;28;20495;-77
2023/05/09 01:58:02;;;;;;;0.00;0.00;;;9.00;99.90;;;;;;5024666;28;20053;-77
2023/05/09 02:00:31;;;;;;;0.00;0.00;;;9.00;99.90;;;;;;5022900;28;20115;-77
2023/05/09 02:03:01;;;;;;;0.00;0.00;;;8.90;99.90;;;;;;5020116;28;20018;-76
2023/05/09 02:05:29;;;;;;;0.00;0.00;;;8.90;99.90;;;;;;5036914;28;20112;-76
2023/05/09 02:07:57;;;;;;;0.00;0.00;;;9.00;99.90;;;;;;5017836;28;20156;-77
2023/05/09 02:10:24;;;;;;;0.00;0.00;;;8.90;99.90;;;;;;5021251;28;20025;-76
2023/05/09 02:12:51;;;;;;;0.00;0.00;;;8.90;99.90;;;;;;5024599;28;20023;-76
2023/05/09 02:15:23;;;;;;;0.05;0.05;;;8.90;99.90;;;;;;5020364;28;20602;-77
2023/05/09 02:17:51;;;;;;;0.00;0.00;;;9.10;99.90;;;;;;5024762;28;20029;-76
2023/05/09 02:20:24;;;;;;;0.00;0.00;;;8.80;99.90;;;;;;5025646;28;20032;-77
2023/05/09 02:22:54;;;;;;;0.00;0.00;;;8.80;99.90;;;;;;5020157;28;20083;-77
2023/05/09 02:25:23;;;;;;;0.00;0.00;;;8.90;99.90;;;;;;5034694;28;20637;-77
2023/05/09 02:27:54;;;;;;;0.00;0.00;;;8.80;99.90;;;;;;5021369;28;20113;-76
2023/05/09 02:30:24;;;;;;;0.00;0.00;;;8.80;99.90;;;;;;5019582;28;20032;-77
2023/05/09 02:32:55;;;;;;;0.00;0.00;;;8.60;99.90;;;;;;5022336;28;20029;-76
2023/05/09 02:35:26;;;;;;;0.00;0.00;;;8.60;99.90;;;;;;5018569;28;20036;-77
2023/05/09 02:37:54;;;;;;;0.00;0.00;;;8.50;99.90;;;;;;5026808;28;20453;-76
2023/05/09 02:40:32;;;;;;;0.17;0.10;;;8.50;99.90;;;;;;5019199;28;20032;-76
2023/05/09 02:42:58;;;;;;;0.00;0.00;;;8.50;99.90;;;;;;5021943;28;20653;-76
2023/05/09 02:45:30;;;;;;;;;;;8.50;99.90;;;;;;5019971;28;20490;-76
2023/05/09 02:47:57;;;;;;;0.00;0.00;;;8.50;99.90;;;;;;5016730;28;19999;-77
2023/05/09 02:50:23;;;;;;;0.00;0.00;;;8.50;99.90;;;;;;5044439;28;20029;-76
2023/05/09 02:52:49;;;;;;;0.00;0.00;;;8.40;99.90;;;;;;5021153;28;20025;-76
2023/05/09 02:55:15;;;;;;;0.00;0.00;;;8.50;99.90;;;;;;5023982;28;20033;-77
2023/05/09 02:57:43;;;;;;;0.00;0.00;;;8.40;99.90;;;;;;5038550;28;20329;-77
2023/05/09 03:00:10;;;;;;;0.00;0.00;;;8.40;99.90;;;;;;5014929;28;20071;-77
2023/05/09 03:02:37;;;;;;;0.00;0.00;;;8.40;99.90;;;;;;5026119;28;20244;-77
2023/05/09 03:05:02;;;;;;;;;;;8.30;99.90;;;;;;5018446;28;20084;-77
2023/05/09 03:07:30;;;;;;;0.00;0.00;;;8.30;99.90;;;;;;5024029;28;19909;-76
2023/05/09 03:09:55;;;;;;;0.00;0.00;;;8.20;99.90;;;;;;5019737;28;20036;-76
2023/05/09 03:12:28;;;;;;;0.00;0.00;;;8.20;99.90;;;;;;5019389;28;20021;-77
2023/05/09 03:14:54;;;;;;;0.00;0.00;;;8.20;99.90;;;;;;5022966;28;20033;-77
2023/05/09 03:17:22;;;;;;;0.00;0.00;;;8.20;99.90;;;;;;5019708;28;20031;-76
2023/05/09 03:19:49;;;;;;;0.00;0.00;;;8.20;99.90;;;;;;5022034;28;20021;-76
2023/05/09 03:22:17;;;;;;;0.10;0.10;;;8.20;99.90;;;;;;5021472;28;20029;-77
2023/05/09 03:24:51;;;;;;;0.00;0.00;;;8.10;99.90;;;;;;5024623;28;20025;-77
2023/05/09 03:27:17;;;;;;;0.00;0.00;;;8.10;99.90;;;;;;5037303;28;20037;-76
2023/05/09 03:29:45;;;;;;;0.10;0.10;;;8.20;99.90;;;;;;5024294;28;20027;-76
2023/05/09 03:32:12;;;;;;;0.00;0.00;;;8.10;99.90;;;;;;5020814;28;20017;-77
2023/05/09 03:34:37;;;;;;;;;;;8.10;99.90;;;;;;5025203;28;20049;-77
2023/05/09 03:37:08;;;;;;;0.00;0.00;;;8.10;99.90;;;;;;5040251;28;19963;-76
2023/05/09 03:39:34;;;;;;;0.00;0.00;;;8.10;99.90;;;;;;5018633;28;20036;-77
2023/05/09 03:42:03;;;;;;;0.23;0.23;;;8.10;99.90;;;;;;5024737;28;20029;-77
2023/05/09 03:44:36;;;;;;;0.03;0.03;;;8.10;99.90;;;;;;5020339;28;20337;-76
2023/05/09 03:47:02;;;;;;;0.00;0.00;;;8.10;99.90;;;;;;5022072;28;20489;-76
2023/05/09 03:49:28;;;;;;;0.00;0.00;;;8.10;99.90;;;;;;5023563;28;20768;-77
2023/05/09 03:52:02;;;;;;;0.00;0.00;;;8.10;99.90;;;;;;5028358;28;20112;-76
2023/05/09 03:54:30;;;;;;;0.00;0.00;;;8.20;99.90;;;;;;5019016;28;20035;-76
2023/05/09 03:56:56;;;;;;;0.30;0.30;;;8.30;99.90;;;;;;5023342;28;20103;-77
2023/05/09 03:59:23;;;;;;;0.00;0.00;;;8.30;99.90;;;;;;5020965;28;20597;-76
2023/05/09 04:01:48;;;;;;;0.00;0.00;;;8.40;99.90;;;;;;5026206;28;20548;-77
2023/05/09 04:04:15;;;;;;;0.20;0.20;;;8.40;99.90;;;;;;5038378;28;20033;-76
2023/05/09 04:06:47;;;;;;;;;;;8.40;99.90;;;;;;5019649;28;20040;-76
2023/05/09 04:09:13;;;;;;;0.00;0.00;;;8.40;99.90;;;;;;5019905;28;19913;-77
2023/05/09 04:11:39;;;;;;;0.00;0.00;;;8.50;99.90;;;;;;5024480;28;20018;-76
2023/05/09 04:14:05;;;;;;;0.00;0.00;;;8.60;99.90;;;;;;5021920;28;20032;-76
2023/05/09 04:16:32;;;;;;;0.05;0.05;;;8.50;99.90;;;;;;5021472;28;20044;-76
2023/05/09 04:19:02;;;;;;;;;;;8.50;99.90;;;;;;5021167;28;20030;-76
2023/05/09 04:21:28;;;;;;;0.00;0.00;;;8.60;99.90;;;;;;5028538;28;19995;-76
2023/05/09 04:23:53;;;;;;;0.00;0.00;;;8.60;99.90;;;;;;5038622;28;20087;-76
2023/05/09 04:26:27;;;;;;;0.00;0.00;;;8.70;99.90;;;;;;5024023;28;20013;-76
2023/05/09 04:28:53;;;;;;;0.00;0.00;;;8.80;99.90;;;;;;5038345;28;20029;-76
2023/05/09 04:31:27;;;;;;;0.00;0.00;;;8.80;99.90;;;;;;5021916;28;20017;-76
2023/05/09 04:33:54;;;;;;;0.10;0.10;;;8.90;99.90;;;;;;5019461;28;21793;-77
2023/05/09 04:36:20;;;;;;;;;;;9.00;99.90;;;;;;5039409;28;20498;-75
2023/05/09 04:38:52;;;;;;;0.00;0.00;;;9.10;99.90;;;;;;5027525;28;20324;-76
2023/05/09 04:41:29;;;;;;;0.00;0.00;;;9.20;99.90;;;;;;5026901;28;20036;-76
2023/05/09 04:44:02;;;;;;;;;;;9.20;99.90;;;;;;5022236;28;20040;-77
2023/05/09 04:46:28;;;;;;;0.00;0.00;;;9.40;99.90;;;;;;5040049;28;19928;-76
2023/05/09 04:48:54;;;;;;;;;;;9.60;99.90;;;;;;5021410;28;20026;-77
2023/05/09 04:51:22;;;;;;;0.00;0.00;;;9.80;99.90;;;;;;5029023;28;19958;-76
2023/05/09 04:53:47;;;;;;;0.05;0.05;;;10.10;99.90;;;;;;5018739;28;20025;-76
2023/05/09 04:56:14;;;;;;;0.00;0.00;;;10.20;99.90;;;;;;5025726;28;20034;-76
2023/05/09 04:58:40;;;;;;;0.00;0.00;;;10.30;99.90;;;;;;5022599;28;20128;-76
2023/05/09 05:01:05;;;;;;;0.00;0.00;;;10.30;99.90;;;;;;5038498;28;20086;-77
2023/05/09 05:03:33;;;;;;;0.00;0.00;;;10.40;99.90;;;;;;5021915;28;20149;-76
2023/05/09 05:06:00;;;;;;;0.00;0.00;;;10.50;99.90;;;;;;5021890;28;20340;-76
2023/05/09 05:08:37;;;;;;;;;;;10.50;99.90;;;;;;5017948;28;20037;-77
2023/05/09 05:11:03;;;;;;;0.20;0.20;;;10.90;99.90;;;;;;5038089;28;19911;-76
2023/05/09 05:13:28;;;;;;;0.10;0.10;;;10.90;99.90;;;;;;5023835;28;20352;-76
2023/05/09 05:15:57;;;;;;;0.00;0.00;;;11.00;99.90;;;;;;5023768;28;20025;-76
2023/05/09 05:18:23;;;;;;;0.00;0.00;;;11.00;99.90;;;;;;5037068;28;20045;-76
2023/05/09 05:20:49;;;;;;;0.17;0.17;;;11.30;99.90;;;;;;5027597;28;20060;-76
2023/05/09 05:23:15;;;;;;;0.00;0.00;;;11.50;99.90;;;;;;5025370;28;20079;-76
2023/05/09 05:25:43;;;;;;;0.00;0.00;;;11.60;99.90;;;;;;5020849;28;20026;-75
2023/05/09 05:28:08;;;;;;;0.00;0.00;;;11.80;99.90;;;;;;5022508;28;20025;-76
2023/05/09 05:30:40;;;;;;;0.00;0.00;;;11.90;99.90;;;;;;5027415;28;20017;-76
2023/05/09 05:33:12;;;;;;;0.00;0.00;;;12.10;99.90;;;;;;5022158;28;20021;-76
2023/05/09 05:35:39;;;;;;;0.08;0.08;;;12.20;99.90;;;;;;5025342;28;20021;-76
2023/05/09 05:38:06;;;;;;;0.10;0.10;;;12.10;99.90;;;;;;5021105;28;20029;-76
2023/05/09 05:43:13;;;;;;;0.00;0.00;;;11.90;99.90;;;;;;5073266;22;20079;-84
2023/05/09 05:45:40;;;;;;;0.00;0.00;;;11.80;99.90;;;;;;5062500;28;20053;-85
2023/05/09 05:48:06;;;;;;;0.00;0.00;;;12.40;99.90;;;;;;5033530;28;20541;-76
2023/05/09 05:50:33;;;;;;;0.10;0.10;;;12.80;99.90;;;;;;5013797;28;21106;-75
2023/05/09 05:53:00;;;;;;;0.60;0.30;;;13.20;98.80;;;;;;5014176;28;20036;-75
2023/05/09 05:55:30;;;;;;;0.00;0.00;;;13.60;98.80;;;;;;5015923;28;20026;-76
2023/05/09 05:58:03;;;;;;;0.00;0.00;;;14.00;98.00;;;;;;5002151;28;20018;-76
2023/05/09 06:00:30;;;;;;;0.00;0.00;;;14.10;97.10;;;;;;5010852;28;20016;-76
2023/05/09 06:02:56;;;;;;;0.00;0.00;;;14.90;95.70;;;;;;5020081;28;20083;-76
2023/05/09 06:05:23;;;;;;;0.00;0.00;;;15.80;93.40;;;;;;5026475;28;20025;-76
2023/05/09 06:07:52;;;;;;;;;;;16.60;91.50;;;;;;5004126;28;20078;-75
2023/05/09 06:10:20;;;;;;;0.00;0.00;;;17.30;88.50;;;;;;5021661;28;19948;-77
2023/05/09 06:12:49;;;;;;;0.00;0.00;;;18.10;85.30;;;;;;5002925;28;20025;-77
2023/05/09 06:15:15;;;;;;;0.00;0.00;;;19.70;78.10;;;;;;5017610;28;20026;-76
2023/05/09 06:17:40;;;;;;;0.00;0.00;;;19.80;74.40;;;;;;5026482;28;20026;-76
2023/05/09 06:20:06;;;;;;;0.00;0.00;;;19.00;74.30;;;;;;5019371;28;20037;-75
2023/05/09 06:22:33;;;;;;;0.00;0.00;;;18.70;74.10;;;;;;5016966;28;20025;-76
2023/05/09 06:24:59;;;;;;;0.15;0.15;;;19.50;72.80;;;;;;5020678;28;20057;-77
2023/05/09 06:27:25;;;;;;;0.08;0.03;;;19.60;71.90;;;;;;5003436;28;20068;-76
2023/05/09 06:29:51;;;;;;;0.00;0.00;;;19.10;71.70;;;;;;5019008;28;20030;-76
2023/05/09 06:32:20;;;;;;;0.22;0.22;;;19.00;71.80;;;;;;5015947;28;20095;-75
2023/05/09 06:34:47;;;;;;;0.00;0.00;;;19.00;71.40;;;;;;5019754;28;20037;-76
2023/05/09 06:37:13;;;;;;;0.00;0.00;;;18.90;71.40;;;;;;5014742;28;20036;-76
2023/05/09 06:39:40;;;;;;;0.00;0.00;;;20.20;70.90;;;;;;5016772;28;20033;-77
2023/05/09 06:42:05;;;;;;;0.00;0.00;;;20.90;67.00;;;;;;5020058;28;20029;-76
2023/05/09 06:44:31;;;;;;;0.00;0.00;;;20.50;66.90;;;;;;5016484;28;20025;-75
2023/05/09 06:46:57;;;;;;;0.00;0.00;;;20.10;68.20;;;;;;5022876;28;20036;-76
2023/05/09 06:49:24;;;;;;;0.05;0.05;;;19.80;67.80;;;;;;5018019;28;20025;-76
2023/05/09 06:51:51;;;;;;;0.00;0.00;;;19.30;68.10;;;;;;5006206;28;20014;-76
2023/05/09 06:54:18;;;;;;;0.05;0.05;;;19.80;67.90;;;;;;5018771;28;20025;-77
2023/05/09 06:56:47;;;;;;;0.00;0.00;;;20.20;68.20;;;;;;5019134;28;20048;-77
2023/05/09 06:59:15;;;;;;;0.00;0.00;;;21.70;66.00;;;;;;5024959;28;21422;-77
2023/05/09 07:01:41;;;;;;;0.13;0.13;;;23.10;62.90;;;;;;5021312;28;20036;-77
2023/05/09 07:04:10;;;;;;;0.10;0.10;;;24.00;59.20;;;;;;5005733;28;20116;-77
2023/05/09 07:06:35;;;;;;;0.17;0.17;;;24.70;57.00;;;;;;5002214;28;20049;-76
2023/05/09 07:09:03;;;;;;;0.00;0.00;;;23.60;57.70;;;;;;5023811;28;20123;-76
2023/05/09 07:11:33;;;;;;;0.00;0.00;;;23.70;57.70;;;;;;5021164;28;20038;-76
2023/05/09 07:14:00;;;;;;;0.00;0.00;;;23.90;57.10;;;;;;5007683;28;20104;-76
2023/05/09 07:16:28;;;;;;;0.00;0.00;;;23.20;57.90;;;;;;5021708;28;20025;-76
2023/05/09 07:18:56;;;;;;;0.00;0.00;;;23.10;57.40;;;;;;5017128;28;20022;-76
2023/05/09 07:21:22;;;;;;;0.00;0.00;;;21.80;59.30;;;;;;5019551;28;20080;-76
2023/05/09 07:23:50;;;;;;;0.00;0.00;;;22.50;58.70;;;;;;5001693;28;20713;-76
2023/05/09 07:26:16;;;;;;;0.00;0.00;;;23.50;57.90;;;;;;5023633;28;20025;-76
2023/05/09 07:28:45;;;;;;;0.00;0.00;;;23.70;57.30;;;;;;5020428;28;20022;-76
2023/05/09 07:31:11;;;;;;;0.08;0.08;;;25.60;55.10;;;;;;5019945;28;20108;-76
2023/05/09 07:33:37;;;;;;;0.00;0.00;;;24.80;53.70;;;;;;5019370;28;20100;-78
2023/05/09 07:36:03;;;;;;;0.52;0.30;;;26.50;52.80;;;;;;5023572;28;20491;-78
2023/05/09 07:38:29;;;;;;;0.00;0.00;;;23.90;54.20;;;;;;5002820;28;20032;-77
2023/05/09 07:40:56;;;;;;;0.00;0.00;;;22.50;56.50;;;;;;5024961;28;20033;-77
2023/05/09 07:43:23;;;;;;;0.00;0.00;;;20.90;59.70;;;;;;5019545;28;20120;-75
2023/05/09 07:45:48;;;;;;;0.00;0.00;;;21.00;60.20;;;;;;5018379;28;20029;-76
2023/05/09 07:48:20;;;;;;;0.00;0.00;;;21.60;59.40;;;;;;5024134;28;20058;-75
2023/05/09 07:50:47;;;;;;;0.00;0.00;;;22.40;58.20;;;;;;5001928;28;20030;-75
2023/05/09 07:53:16;;;;;;;0.00;0.00;;;22.70;57.70;;;;;;5002894;28;20061;-76
2023/05/09 07:55:52;;;;;;;0.10;0.10;;;22.60;56.80;;;;;;5019465;28;20466;-75
2023/05/09 07:58:20;;;;;;;0.00;0.00;;;21.00;58.90;;;;;;5023499;28;20833;-75
2023/05/09 08:00:56;;;;;;;0.00;0.00;;;20.10;61.30;;;;;;5018891;28;21110;-75
2023/05/09 08:03:24;;;;;;;0.20;0.20;;;20.80;60.50;;;;;;5020995;28;20549;-75
2023/05/09 08:06:00;;;;;;;0.00;0.00;;;21.40;59.70;;;;;;5017532;28;20052;-75
2023/05/09 08:08:27;;;;;;;0.10;0.10;;;22.40;58.10;;;;;;5021048;28;20017;-75
2023/05/09 08:10:52;;;;;;;0.40;0.40;;;23.50;57.30;;;;;;5019411;28;20018;-76
2023/05/09 08:13:19;;;;;;;0.10;0.10;;;25.10;55.80;;;;;;5024436;28;20029;-75
2023/05/09 08:15:46;;;;;;;0.00;0.00;;;25.00;54.20;;;;;;5017015;28;20029;-75
2023/05/09 08:18:15;;;;;;;0.00;0.00;;;25.00;54.30;;;;;;5017735;28;20104;-78
2023/05/09 08:20:42;;;;;;;0.00;0.00;;;26.50;52.80;;;;;;5013377;28;20463;-78
2023/05/09 08:23:08;;;;;;;0.10;0.10;;;25.50;52.30;;;;;;5018170;28;20025;-78
2023/05/09 08:25:46;;;;;;;0.00;0.00;;;25.60;53.90;;;;;;5018424;28;20021;-78
2023/05/09 08:28:15;;;;;;;0.10;0.10;;;25.80;52.70;;;;;;5015037;28;20025;-78
2023/05/09 08:30:42;;;;;;;0.10;0.10;;;24.50;53.60;;;;;;5025105;28;20018;-78
2023/05/09 08:33:07;;;;;;;0.10;0.08;;;23.10;55.00;;;;;;5015264;28;20052;-78
2023/05/09 08:35:33;;;;;;;0.00;0.00;;;22.90;57.00;;;;;;5018056;28;20053;-80
2023/05/09 08:38:04;;;;;;;0.00;0.00;;;22.70;55.70;;;;;;5024112;28;20022;-79
2023/05/09 08:40:35;;;;;;;0.00;0.00;;;22.00;57.00;;;;;;5012696;28;20022;-78
2023/05/09 08:43:07;;;;;;;0.00;0.00;;;21.80;57.60;;;;;;5018803;28;20390;-78
2023/05/09 08:45:38;;;;;;;0.00;0.00;;;21.60;58.20;;;;;;5015184;28;20045;-78
2023/05/09 08:48:06;;;;;;;0.13;0.10;;;20.70;59.30;;;;;;5000350;28;20558;-78
2023/05/09 08:50:34;;;;;;;0.00;0.00;;;20.40;61.00;;;;;;5014919;28;20498;-78
2023/05/09 08:53:02;;;;;;;0.00;0.00;;;20.00;61.00;;;;;;5018200;28;20014;-79
2023/05/09 08:55:31;;;;;;;0.00;0.00;;;19.80;61.60;;;;;;5001334;28;20026;-78
2023/05/09 08:57:58;;;;;;;0.00;0.00;;;20.80;61.20;;;;;;5017488;28;20378;-78
2023/05/09 09:00:25;;;;;;;0.00;0.00;;;21.60;59.30;;;;;;5002354;28;21575;-78
2023/05/09 09:02:52;;;;;;;0.00;0.00;;;22.40;57.80;;;;;;5015880;28;20065;-78
2023/05/09 09:05:19;;;;;;;0.10;0.10;;;22.80;57.60;;;;;;5024557;28;20035;-78
2023/05/09 09:07:53;;;;;;;0.00;0.00;;;22.40;56.40;;;;;;5020649;28;21613;-78
2023/05/09 09:10:24;;;;;;;0.00;0.00;;;22.20;57.70;;;;;;5006936;28;20112;-78
2023/05/09 09:12:56;;;;;;;0.47;0.47;;;21.70;58.60;;;;;;5008654;28;20168;-77
2023/05/09 09:15:27;;;;;;;0.00;0.00;;;21.70;58.80;;;;;;5020580;28;20056;-78
2023/05/09 09:18:02;;;;;;;0.00;0.00;;;22.60;57.80;;;;;;5017574;28;20022;-78
2023/05/09 09:20:45;;;;;;;0.30;0.30;;;22.60;57.30;;;;;;5020888;28;20028;-78
2023/05/09 09:23:16;;;;;;;0.00;0.00;;;23.80;57.80;;;;;;5010753;28;20025;-76
2023/05/09 09:25:47;;;;;;;0.00;0.00;;;24.60;56.00;;;;;;5020357;28;20525;-78
2023/05/09 09:28:13;;;;;;;0.00;0.00;;;24.90;54.60;;;;;;5021329;28;20121;-79
2023/05/09 09:30:49;;;;;;;;;;;25.60;53.80;;;;;;5002434;28;20014;-78
2023/05/09 09:33:25;;;;;;;0.00;0.00;;;25.20;53.60;;;;;;5018557;28;19919;-78
2023/05/09 09:35:55;;;;;;;0.20;0.20;;;24.30;55.00;;;;;;5019889;28;20029;-78
2023/05/09 09:38:40;;;;;;;0.00;0.00;;;23.30;56.20;;;;;;5022700;28;20493;-78
2023/05/09 09:41:05;;;;;;;0.00;0.00;;;23.80;56.30;;;;;;5012066;28;20026;-79
2023/05/09 09:43:33;;;;;;;0.00;0.00;;;25.60;54.80;;;;;;5021957;28;20135;-77
2023/05/09 09:46:03;;;;;;;0.20;0.20;;;24.20;54.70;;;;;;5017692;28;20112;-79
2023/05/09 09:48:35;;;;;;;0.00;0.00;;;23.90;56.20;;;;;;5021715;28;20022;-78
2023/05/09 09:51:19;;;;;;;0.00;0.00;;;25.50;55.20;;;;;;5021742;28;20017;-78
2023/05/09 09:53:47;;;;;;;0.00;0.00;;;25.90;53.60;;;;;;5018143;28;20028;-79
2023/05/09 09:56:41;;;;;;;0.05;0.05;;;26.50;53.60;;;;;;5020150;28;20017;-79
2023/05/09 09:59:21;;;;;;;0.15;0.15;;;25.30;53.70;;;;;;5022599;28;20017;-79
2023/05/09 10:02:02;;;;;;;0.00;0.00;;;25.10;53.60;;;;;;5017514;28;20048;-78
2023/05/09 10:04:34;;;;;;;0.00;0.00;;;26.40;53.10;;;;;;5020035;28;20021;-78
2023/05/09 10:07:09;;;;;;;0.00;0.00;;;26.20;52.70;;;;;;4999766;28;20028;-76
2023/05/09 10:09:42;;;;;;;0.10;0.10;;;26.60;52.90;;;;;;5014108;28;20033;-75
2023/05/09 10:12:18;;;;;;;0.00;0.00;;;25.30;53.40;;;;;;5017190;28;20021;-74
2023/05/09 10:14:46;;;;;;;0.17;0.17;;;25.00;54.40;;;;;;5021001;28;20032;-74
2023/05/09 10:17:13;;;;;;;0.00;0.00;;;23.40;56.70;;;;;;5021123;28;20025;-74
2023/05/09 10:19:44;;;;;;;0.00;0.00;;;23.40;56.50;;;;;;5015020;28;20026;-74
2023/05/09 10:22:13;;;;;;;0.00;0.00;;;24.40;55.70;;;;;;5020859;28;20021;-72
2023/05/09 10:25:01;;;;;;;0.00;0.00;;;24.90;55.10;;;;;;5018422;28;20025;-72
2023/05/09 10:27:31;;;;;;;0.00;0.00;;;25.40;54.00;;;;;;5017065;28;20485;-75
2023/05/09 10:30:06;;;;;;;0.25;0.25;;;26.20;54.20;;;;;;4987840;28;20041;-83
2023/05/09 10:33:10;;;;;;;0.30;0.30;;;25.80;53.70;;;;;;5021641;28;20486;-82
2023/05/09 10:35:57;;;;;;;0.00;0.00;;;24.60;56.00;;;;;;5004400;28;20030;-82
2023/05/09 10:38:33;;;;;;;0.20;0.20;;;25.70;54.00;;;;;;5027160;28;20475;-83
2023/05/09 10:41:12;;;;;;;;;;;24.00;56.10;;;;;;5022740;28;20029;-83
2023/05/09 10:43:44;;;;;;;0.00;0.00;;;25.20;55.20;;;;;;5002919;28;19912;-78
2023/05/09 10:46:12;;;;;;;0.00;0.00;;;25.30;54.40;;;;;;5027380;28;20044;-80
2023/05/09 10:48:41;;;;;;;0.00;0.00;;;25.40;54.60;;;;;;5023344;28;20489;-80
2023/05/09 10:51:10;;;;;;;0.10;0.10;;;25.00;55.10;;;;;;5005170;28;20056;-79
2023/05/09 10:53:49;;;;;;;0.00;0.00;;;24.10;56.50;;;;;;5019640;28;20067;-70
2023/05/09 10:56:27;;;;;;;0.00;0.00;;;23.60;56.70;;;;;;5014564;28;20033;-70
2023/05/09 10:58:53;;;;;;;0.57;0.57;;;22.50;58.90;;;;;;5016494;28;20025;-69
2023/05/09 11:01:38;;;;;;;0.00;0.00;;;21.20;60.90;;;;;;5017565;28;20438;-71
2023/05/09 11:04:13;;;;;;;0.00;0.00;;;20.60;61.50;;;;;;5015310;28;20037;-70
2023/05/09 11:06:49;;;;;;;0.10;0.10;;;20.10;63.30;;;;;;4996845;28;20013;-70
2023/05/09 11:09:32;;;;;;;0.10;0.00;;;20.10;63.40;;;;;;5000749;28;20078;-66
2023/05/09 11:12:11;;;;;;;0.00;0.00;;;19.90;63.80;;;;;;5018402;28;20025;-75
2023/05/09 11:14:48;;;;;;;0.00;0.00;;;19.30;64.80;;;;;;5019298;28;20606;-74
2023/05/09 11:17:27;;;;;;;0.13;0.13;;;19.00;65.80;;;;;;5016512;28;20499;-75
2023/05/09 11:19:59;;;;;;;0.00;0.00;;;19.00;66.70;;;;;;5023517;28;20100;-74
2023/05/09 11:22:27;;;;;;;0.25;0.25;;;18.90;66.10;;;;;;5014202;28;21576;-74
2023/05/09 11:25:06;;;;;;;0.00;0.00;;;18.50;66.10;;;;;;5016991;28;20069;-75
2023/05/09 11:27:47;;;;;;;0.03;0.03;;;18.60;66.70;;;;;;5000005;28;20029;-74
2023/05/09 11:30:19;;;;;;;0.00;0.00;;;18.60;67.00;;;;;;5016832;28;20021;-74
2023/05/09 11:32:45;;;;;;;0.10;0.10;;;18.40;67.60;;;;;;5013650;28;20058;-75
2023/05/09 11:35:16;;;;;;;0.00;0.00;;;18.60;67.60;;;;;;5017787;28;20036;-75
2023/05/09 11:38:00;;;;;;;0.00;0.00;;;18.40;67.90;;;;;;5017996;28;20083;-75
2023/05/09 11:40:27;;;;;;;0.22;0.00;;;18.30;68.10;;;;;;5020461;28;20055;-75
2023/05/09 11:42:55;;;;;;;0.00;0.00;;;18.20;67.90;;;;;;5017562;28;20037;-75
2023/05/09 11:45:23;;;;;;;0.13;0.13;;;18.50;67.80;;;;;;5007723;28;20029;-74
2023/05/09 11:47:50;;;;;;;0.00;0.00;;;18.50;67.70;;;;;;5019568;28;21165;-75
2023/05/09 11:50:20;;;;;;;0.10;0.10;;;18.80;66.50;;;;;;5014855;28;20032;-75
2023/05/09 11:52:47;;;;;;;0.00;0.00;;;19.00;67.40;;;;;;5021747;28;20026;-74
2023/05/09 11:55:14;;;;;;;0.00;0.00;;;19.10;67.30;;;;;;5001016;28;20029;-75
2023/05/09 11:57:45;;;;;;;0.00;0.00;;;18.50;66.60;;;;;;5022260;28;20053;-75
2023/05/09 12:00:12;;;;;;;0.00;0.00;;;18.60;67.40;;;;;;5020637;28;20041;-75
2023/05/09 12:02:37;;;;;;;;;;;18.30;67.80;;;;;;5023465;28;20728;-74
2023/05/09 12:05:11;;;;;;;0.00;0.00;;;17.80;68.50;;;;;;5017642;28;19998;-75
2023/05/09 12:07:41;;;;;;;0.00;0.00;;;17.60;70.30;;;;;;4995332;28;20021;-75
2023/05/09 12:10:12;;;;;;;0.10;0.10;;;17.90;69.80;;;;;;5002998;28;20045;-74
2023/05/09 12:12:45;;;;;;;0.00;0.00;;;18.40;68.90;;;;;;5017910;28;20349;-75
2023/05/09 12:15:13;;;;;;;0.00;0.00;;;17.90;68.90;;;;;;5021274;28;20045;-75
2023/05/09 12:17:40;;;;;;;0.00;0.00;;;18.10;69.40;;;;;;5021085;28;20029;-75
2023/05/09 12:20:07;;;;;;;0.00;0.00;;;17.80;69.50;;;;;;5002759;28;20026;-75
2023/05/09 12:22:34;;;;;;;0.00;0.00;;;17.90;69.30;;;;;;5005154;28;20463;-75
2023/05/09 12:25:01;;;;;;;;;;;17.90;68.80;;;;;;5022095;28;20056;-75
2023/05/09 12:27:28;;;;;;;0.00;0.00;;;18.20;69.10;;;;;;5000673;28;19928;-75
2023/05/09 12:29:54;;;;;;;0.00;0.00;;;18.30;68.60;;;;;;5017602;28;20018;-75
2023/05/09 12:32:21;;;;;;;;;;;18.20;68.40;;;;;;5023350;28;20095;-74
2023/05/09 12:34:50;;;;;;;0.00;0.00;;;17.90;69.00;;;;;;5004020;28;20024;-75
2023/05/09 12:37:20;;;;;;;0.00;0.00;;;17.60;69.60;;;;;;5021760;28;20693;-74
2023/05/09 12:40:11;;;;;;;0.00;0.00;;;17.30;70.50;;;;;;5017140;28;20032;-75
2023/05/09 12:42:41;;;;;;;0.00;0.00;;;17.60;71.00;;;;;;5019368;28;20048;-74
2023/05/09 12:45:08;;;;;;;0.00;0.00;;;17.60;70.30;;;;;;5004929;28;20030;-75
2023/05/09 12:47:34;;;;;;;1.67;0.10;;;17.50;71.30;;;;;;5025841;28;20016;-75
2023/05/09 12:50:05;;;;;;;0.00;0.00;;;17.50;70.70;;;;;;5022020;28;20017;-73
2023/05/09 12:52:36;;;;;;;0.00;0.00;;;17.50;70.60;;;;;;5025847;28;20024;-72
2023/05/09 12:55:10;;;;;;;0.00;0.00;;;17.30;70.80;;;;;;5021634;28;20125;-73
2023/05/09 12:57:36;;;;;;;0.00;0.00;;;17.20;71.00;;;;;;5020015;28;20026;-73
2023/05/09 13:00:11;;;;;;;0.00;0.00;;;17.40;71.20;;;;;;5025314;28;20017;-73
2023/05/09 13:02:40;;;;;;;0.00;0.00;;;17.50;70.50;;;;;;5022850;28;20025;-73
2023/05/09 13:05:09;;;;;;;0.00;0.00;;;17.50;70.90;;;;;;5026359;28;20721;-73
2023/05/09 13:07:45;;;;;;;0.00;0.00;;;17.80;71.40;;;;;;5022562;28;20399;-73
2023/05/09 13:10:22;;;;;;;0.00;0.00;;;17.90;70.50;;;;;;5003272;28;20471;-73
2023/05/09 13:12:49;;;;;;;0.00;0.00;;;18.10;69.90;;;;;;5024118;28;20040;-72
2023/05/09 13:15:20;;;;;;;0.00;0.00;;;18.30;69.10;;;;;;5020233;28;20026;-73